sensor_id;sensor_type;location;lat;lon;timestamp;temperature;humidity
52495;DHT22;38405;53.212;5.660;2024-02-14T00:02:24;6.50;99.90
52495;DHT22;38405;53.212;5.660;2024-02-14T00:04:52;6.60;99.90
52495;DHT22;38405;53.212;5.660;2024-02-14T00:07:19;6.50;99.90
52495;DHT22;38405;53.212;5.660;2024-02-14T00:09:44;6.60;99.90
52495;DHT22;38405;53.212;5.660;2024-02-14T00:12:10;6.80;99.90
52495;DHT22;38405;53.212;5.660;2024-02-14T00:14:37;6.50;99.90
52495;DHT22;38405;53.212;5.660;2024-02-14T00:17:03;6.50;99.90
52495;DHT22;38405;53.212;5.660;2024-02-14T00:19:29;6.60;99.90
52495;DHT22;38405;53.212;5.660;2024-02-14T00:21:55;6.50;99.90
52495;DHT22;38405;53.212;5.660;2024-02-14T00:24:20;6.60;99.90
52495;DHT22;38405;53.212;5.660;2024-02-14T00:26:46;7.00;99.90
52495;DHT22;38405;53.212;5.660;2024-02-14T00:29:11;6.90;99.90
52495;DHT22;38405;53.212;5.660;2024-02-14T00:31:37;6.80;99.90
52495;DHT22;38405;53.212;5.660;2024-02-14T00:34:03;6.90;99.90
52495;DHT22;38405;53.212;5.660;2024-02-14T00:36:30;6.80;99.90
52495;DHT22;38405;53.212;5.660;2024-02-14T00:38:55;6.70;99.90
52495;DHT22;38405;53.212;5.660;2024-02-14T00:41:21;6.70;99.90
52495;DHT22;38405;53.212;5.660;2024-02-14T00:43:47;7.10;99.90
52495;DHT22;38405;53.212;5.660;2024-02-14T00:46:18;7.10;99.90
52495;DHT22;38405;53.212;5.660;2024-02-14T00:48:43;7.10;99.90
52495;DHT22;38405;53.212;5.660;2024-02-14T00:51:10;6.90;99.90
52495;DHT22;38405;53.212;5.660;2024-02-14T00:53:36;6.90;99.90
52495;DHT22;38405;53.212;5.660;2024-02-14T00:56:02;6.90;99.90
52495;DHT22;38405;53.212;5.660;2024-02-14T00:58:28;7.00;99.90
52495;DHT22;38405;53.212;5.660;2024-02-14T01:00:53;7.10;99.90
52495;DHT22;38405;53.212;5.660;2024-02-14T01:03:19;7.10;99.90
52495;DHT22;38405;53.212;5.660;2024-02-14T01:05:45;7.40;99.90
52495;DHT22;38405;53.212;5.660;2024-02-14T01:08:10;7.50;99.90
52495;DHT22;38405;53.212;5.660;2024-02-14T01:10:36;7.80;99.90
52495;DHT22;38405;53.212;5.660;2024-02-14T01:13:02;7.60;99.90
52495;DHT22;38405;53.212;5.660;2024-02-14T01:15:28;7.30;99.90
52495;DHT22;38405;53.212;5.660;2024-02-14T01:17:53;7.40;99.90
52495;DHT22;38405;53.212;5.660;2024-02-14T01:20:19;7.30;99.90
52495;DHT22;38405;53.212;5.660;2024-02-14T01:22:45;7.50;99.90
52495;DHT22;38405;53.212;5.660;2024-02-14T01:25:12;7.70;99.90
52495;DHT22;38405;53.212;5.660;2024-02-14T01:27:38;7.40;99.90
52495;DHT22;38405;53.212;5.660;2024-02-14T01:30:04;7.80;99.90
52495;DHT22;38405;53.212;5.660;2024-02-14T01:32:31;7.80;99.90
52495;DHT22;38405;53.212;5.660;2024-02-14T01:34:57;7.50;99.90
52495;DHT22;38405;53.212;5.660;2024-02-14T01:37:22;7.60;99.90
52495;DHT22;38405;53.212;5.660;2024-02-14T01:39:48;7.90;99.90
52495;DHT22;38405;53.212;5.660;2024-02-14T01:42:14;7.80;99.90
52495;DHT22;38405;53.212;5.660;2024-02-14T01:44:40;7.50;99.90
52495;DHT22;38405;53.212;5.660;2024-02-14T01:47:05;8.00;99.90
52495;DHT22;38405;53.212;5.660;2024-02-14T01:49:33;7.70;99.90
52495;DHT22;38405;53.212;5.660;2024-02-14T01:52:02;7.90;99.90
52495;DHT22;38405;53.212;5.660;2024-02-14T01:54:29;8.00;99.90
52495;DHT22;38405;53.212;5.660;2024-02-14T01:56:55;8.00;99.90
52495;DHT22;38405;53.212;5.660;2024-02-14T01:59:21;8.10;99.90
52495;DHT22;38405;53.212;5.660;2024-02-14T02:01:48;7.80;99.90
52495;DHT22;38405;53.212;5.660;2024-02-14T02:04:14;8.00;99.90
52495;DHT22;38405;53.212;5.660;2024-02-14T02:06:39;7.90;99.90
52495;DHT22;38405;53.212;5.660;2024-02-14T02:09:08;7.60;99.90
52495;DHT22;38405;53.212;5.660;2024-02-14T02:11:46;7.70;99.90
52495;DHT22;38405;53.212;5.660;2024-02-14T02:14:14;7.80;99.90
52495;DHT22;38405;53.212;5.660;2024-02-14T02:16:40;8.20;99.90
52495;DHT22;38405;53.212;5.660;2024-02-14T02:19:05;7.80;99.90
52495;DHT22;38405;53.212;5.660;2024-02-14T02:21:34;7.90;99.90
52495;DHT22;38405;53.212;5.660;2024-02-14T02:24:01;8.00;99.90
52495;DHT22;38405;53.212;5.660;2024-02-14T02:26:27;8.00;99.90
52495;DHT22;38405;53.212;5.660;2024-02-14T02:28:52;8.00;99.90
52495;DHT22;38405;53.212;5.660;2024-02-14T02:31:20;7.80;99.90
52495;DHT22;38405;53.212;5.660;2024-02-14T02:33:46;8.20;99.90
52495;DHT22;38405;53.212;5.660;2024-02-14T02:36:12;8.30;99.90
52495;DHT22;38405;53.212;5.660;2024-02-14T02:38:38;8.30;99.90
52495;DHT22;38405;53.212;5.660;2024-02-14T02:41:04;8.10;99.90
52495;DHT22;38405;53.212;5.660;2024-02-14T02:43:33;7.90;99.90
52495;DHT22;38405;53.212;5.660;2024-02-14T02:45:59;8.00;99.90
52495;DHT22;38405;53.212;5.660;2024-02-14T02:48:25;8.50;99.90
52495;DHT22;38405;53.212;5.660;2024-02-14T02:50:51;8.50;99.90
52495;DHT22;38405;53.212;5.660;2024-02-14T02:53:18;8.20;99.90
52495;DHT22;38405;53.212;5.660;2024-02-14T02:55:44;8.40;99.90
52495;DHT22;38405;53.212;5.660;2024-02-14T02:58:10;8.30;99.90
52495;DHT22;38405;53.212;5.660;2024-02-14T03:00:36;8.20;99.90
52495;DHT22;38405;53.212;5.660;2024-02-14T03:03:02;8.70;99.90
52495;DHT22;38405;53.212;5.660;2024-02-14T03:05:30;8.40;99.90
52495;DHT22;38405;53.212;5.660;2024-02-14T03:07:59;8.70;99.90
52495;DHT22;38405;53.212;5.660;2024-02-14T03:10:25;8.70;99.90
52495;DHT22;38405;53.212;5.660;2024-02-14T03:12:51;8.80;99.90
52495;DHT22;38405;53.212;5.660;2024-02-14T03:15:17;8.40;99.90
52495;DHT22;38405;53.212;5.660;2024-02-14T03:17:44;8.40;99.90
52495;DHT22;38405;53.212;5.660;2024-02-14T03:20:11;8.70;99.90
52495;DHT22;38405;53.212;5.660;2024-02-14T03:22:43;8.60;99.90
52495;DHT22;38405;53.212;5.660;2024-02-14T03:25:16;9.00;99.90
52495;DHT22;38405;53.212;5.660;2024-02-14T03:27:43;8.90;99.90
52495;DHT22;38405;53.212;5.660;2024-02-14T03:30:13;9.00;99.90
52495;DHT22;38405;53.212;5.660;2024-02-14T03:32:43;9.00;99.90
52495;DHT22;38405;53.212;5.660;2024-02-14T03:35:08;9.10;99.90
52495;DHT22;38405;53.212;5.660;2024-02-14T03:37:37;9.10;99.90
52495;DHT22;38405;53.212;5.660;2024-02-14T03:40:05;9.10;99.90
52495;DHT22;38405;53.212;5.660;2024-02-14T03:42:32;8.80;99.90
52495;DHT22;38405;53.212;5.660;2024-02-14T03:44:58;8.80;99.90
52495;DHT22;38405;53.212;5.660;2024-02-14T03:47:31;8.70;99.90
52495;DHT22;38405;53.212;5.660;2024-02-14T03:49:58;9.30;99.90
52495;DHT22;38405;53.212;5.660;2024-02-14T03:52:23;9.20;99.90
52495;DHT22;38405;53.212;5.660;2024-02-14T03:54:50;9.00;99.90
52495;DHT22;38405;53.212;5.660;2024-02-14T03:57:16;9.30;99.90
52495;DHT22;38405;53.212;5.660;2024-02-14T03:59:46;9.10;99.90
52495;DHT22;38405;53.212;5.660;2024-02-14T04:02:12;9.00;99.90
52495;DHT22;38405;53.212;5.660;2024-02-14T04:04:41;8.90;99.90
52495;DHT22;38405;53.212;5.660;2024-02-14T04:07:07;8.90;99.90
52495;DHT22;38405;53.212;5.660;2024-02-14T04:09:36;8.80;99.90
52495;DHT22;38405;53.212;5.660;2024-02-14T04:12:02;8.70;99.90
52495;DHT22;38405;53.212;5.660;2024-02-14T04:14:28;8.90;99.90
52495;DHT22;38405;53.212;5.660;2024-02-14T04:16:54;8.80;99.90
52495;DHT22;38405;53.212;5.660;2024-02-14T04:19:20;9.40;99.90
52495;DHT22;38405;53.212;5.660;2024-02-14T04:21:46;9.10;99.90
52495;DHT22;38405;53.212;5.660;2024-02-14T04:24:12;9.40;99.90
52495;DHT22;38405;53.212;5.660;2024-02-14T04:26:38;9.10;99.90
52495;DHT22;38405;53.212;5.660;2024-02-14T04:29:03;8.80;99.90
52495;DHT22;38405;53.212;5.660;2024-02-14T04:31:29;9.10;99.90
52495;DHT22;38405;53.212;5.660;2024-02-14T04:33:57;8.90;99.90
52495;DHT22;38405;53.212;5.660;2024-02-14T04:36:22;8.80;99.90
52495;DHT22;38405;53.212;5.660;2024-02-14T04:38:49;8.80;99.90
52495;DHT22;38405;53.212;5.660;2024-02-14T04:41:15;9.10;99.90
52495;DHT22;38405;53.212;5.660;2024-02-14T04:43:41;9.20;99.90
52495;DHT22;38405;53.212;5.660;2024-02-14T04:46:07;9.20;99.90
52495;DHT22;38405;53.212;5.660;2024-02-14T04:48:34;9.20;99.90
52495;DHT22;38405;53.212;5.660;2024-02-14T04:51:01;8.90;99.90
52495;DHT22;38405;53.212;5.660;2024-02-14T04:53:26;9.30;99.90
52495;DHT22;38405;53.212;5.660;2024-02-14T04:55:53;8.80;99.90
52495;DHT22;38405;53.212;5.660;2024-02-14T04:58:19;8.80;99.90
52495;DHT22;38405;53.212;5.660;2024-02-14T05:00:44;9.20;99.90
52495;DHT22;38405;53.212;5.660;2024-02-14T05:03:10;9.20;99.90
52495;DHT22;38405;53.212;5.660;2024-02-14T05:05:36;9.40;99.90
52495;DHT22;38405;53.212;5.660;2024-02-14T05:08:02;9.00;99.90
52495;DHT22;38405;53.212;5.660;2024-02-14T05:10:28;8.90;99.90
52495;DHT22;38405;53.212;5.660;2024-02-14T05:12:54;9.20;99.90
52495;DHT22;38405;53.212;5.660;2024-02-14T05:15:20;9.30;99.90
52495;DHT22;38405;53.212;5.660;2024-02-14T05:17:46;9.20;99.90
52495;DHT22;38405;53.212;5.660;2024-02-14T05:20:12;9.10;99.90
52495;DHT22;38405;53.212;5.660;2024-02-14T05:22:38;9.00;99.90
52495;DHT22;38405;53.212;5.660;2024-02-14T05:25:04;8.90;99.90
52495;DHT22;38405;53.212;5.660;2024-02-14T05:27:32;9.30;99.90
52495;DHT22;38405;53.212;5.660;2024-02-14T05:29:58;9.10;99.90
52495;DHT22;38405;53.212;5.660;2024-02-14T05:32:24;8.90;99.90
52495;DHT22;38405;53.212;5.660;2024-02-14T05:34:51;9.10;99.90
52495;DHT22;38405;53.212;5.660;2024-02-14T05:37:16;9.00;99.90
52495;DHT22;38405;53.212;5.660;2024-02-14T05:39:42;8.90;99.90
52495;DHT22;38405;53.212;5.660;2024-02-14T05:42:08;9.20;99.90
52495;DHT22;38405;53.212;5.660;2024-02-14T05:44:34;9.00;99.90
52495;DHT22;38405;53.212;5.660;2024-02-14T05:46:59;9.30;99.90
52495;DHT22;38405;53.212;5.660;2024-02-14T05:49:26;9.20;99.90
52495;DHT22;38405;53.212;5.660;2024-02-14T05:51:51;9.10;99.90
52495;DHT22;38405;53.212;5.660;2024-02-14T05:54:19;9.10;99.90
52495;DHT22;38405;53.212;5.660;2024-02-14T05:56:45;9.60;99.90
52495;DHT22;38405;53.212;5.660;2024-02-14T05:59:11;9.00;99.90
52495;DHT22;38405;53.212;5.660;2024-02-14T06:01:37;9.60;99.90
52495;DHT22;38405;53.212;5.660;2024-02-14T06:04:02;9.10;99.90
52495;DHT22;38405;53.212;5.660;2024-02-14T06:06:28;9.00;99.90
52495;DHT22;38405;53.212;5.660;2024-02-14T06:08:54;8.90;99.90
52495;DHT22;38405;53.212;5.660;2024-02-14T06:11:20;9.00;99.90
52495;DHT22;38405;53.212;5.660;2024-02-14T06:13:47;9.30;99.90
52495;DHT22;38405;53.212;5.660;2024-02-14T06:16:13;9.00;99.90
52495;DHT22;38405;53.212;5.660;2024-02-14T06:18:39;9.10;99.90
52495;DHT22;38405;53.212;5.660;2024-02-14T06:21:06;9.50;99.90
52495;DHT22;38405;53.212;5.660;2024-02-14T06:23:31;9.00;99.90
52495;DHT22;38405;53.212;5.660;2024-02-14T06:25:58;9.60;99.90
52495;DHT22;38405;53.212;5.660;2024-02-14T06:28:24;9.20;99.90
52495;DHT22;38405;53.212;5.660;2024-02-14T06:30:50;9.10;99.90
52495;DHT22;38405;53.212;5.660;2024-02-14T06:33:15;9.10;99.90
52495;DHT22;38405;53.212;5.660;2024-02-14T06:35:41;9.30;99.90
52495;DHT22;38405;53.212;5.660;2024-02-14T06:38:07;9.40;99.90
52495;DHT22;38405;53.212;5.660;2024-02-14T06:40:33;9.10;99.90
52495;DHT22;38405;53.212;5.660;2024-02-14T06:42:59;9.40;99.90
52495;DHT22;38405;53.212;5.660;2024-02-14T06:45:29;9.50;99.90
52495;DHT22;38405;53.212;5.660;2024-02-14T06:47:55;9.10;99.90
52495;DHT22;38405;53.212;5.660;2024-02-14T06:50:20;9.20;99.90
52495;DHT22;38405;53.212;5.660;2024-02-14T06:52:46;9.50;99.90
52495;DHT22;38405;53.212;5.660;2024-02-14T06:55:12;9.50;99.90
52495;DHT22;38405;53.212;5.660;2024-02-14T06:57:38;9.50;99.90
52495;DHT22;38405;53.212;5.660;2024-02-14T07:00:04;9.50;99.90
52495;DHT22;38405;53.212;5.660;2024-02-14T07:02:32;9.20;99.90
52495;DHT22;38405;53.212;5.660;2024-02-14T07:04:58;9.20;99.90
52495;DHT22;38405;53.212;5.660;2024-02-14T07:07:23;9.20;99.90
52495;DHT22;38405;53.212;5.660;2024-02-14T07:09:49;9.50;99.90
52495;DHT22;38405;53.212;5.660;2024-02-14T07:12:14;9.40;99.90
52495;DHT22;38405;53.212;5.660;2024-02-14T07:14:40;9.20;99.90
52495;DHT22;38405;53.212;5.660;2024-02-14T07:17:09;9.70;99.90
52495;DHT22;38405;53.212;5.660;2024-02-14T07:19:35;9.60;99.90
52495;DHT22;38405;53.212;5.660;2024-02-14T07:22:01;9.70;99.90
52495;DHT22;38405;53.212;5.660;2024-02-14T07:24:26;9.70;99.90
52495;DHT22;38405;53.212;5.660;2024-02-14T07:26:52;9.80;99.90
52495;DHT22;38405;53.212;5.660;2024-02-14T07:29:17;9.70;99.90
52495;DHT22;38405;53.212;5.660;2024-02-14T07:31:43;9.60;99.90
52495;DHT22;38405;53.212;5.660;2024-02-14T07:34:08;9.70;99.90
52495;DHT22;38405;53.212;5.660;2024-02-14T07:36:34;9.60;99.90
52495;DHT22;38405;53.212;5.660;2024-02-14T07:39:00;9.90;99.90
52495;DHT22;38405;53.212;5.660;2024-02-14T07:41:26;9.60;99.90
52495;DHT22;38405;53.212;5.660;2024-02-14T07:43:51;9.80;99.90
52495;DHT22;38405;53.212;5.660;2024-02-14T07:46:19;9.70;99.90
52495;DHT22;38405;53.212;5.660;2024-02-14T07:48:44;9.90;99.90
52495;DHT22;38405;53.212;5.660;2024-02-14T07:51:10;9.70;99.90
52495;DHT22;38405;53.212;5.660;2024-02-14T07:53:36;9.80;99.90
52495;DHT22;38405;53.212;5.660;2024-02-14T07:56:01;9.90;99.90
52495;DHT22;38405;53.212;5.660;2024-02-14T07:58:28;9.80;99.90
52495;DHT22;38405;53.212;5.660;2024-02-14T08:00:53;9.90;99.90
52495;DHT22;38405;53.212;5.660;2024-02-14T08:03:19;9.50;99.90
52495;DHT22;38405;53.212;5.660;2024-02-14T08:05:44;9.80;99.90
52495;DHT22;38405;53.212;5.660;2024-02-14T08:08:10;9.80;99.90
52495;DHT22;38405;53.212;5.660;2024-02-14T08:10:36;9.70;99.90
52495;DHT22;38405;53.212;5.660;2024-02-14T08:13:02;10.00;99.90
52495;DHT22;38405;53.212;5.660;2024-02-14T08:15:29;10.10;99.90
52495;DHT22;38405;53.212;5.660;2024-02-14T08:17:55;9.70;99.90
52495;DHT22;38405;53.212;5.660;2024-02-14T08:20:22;9.80;99.90
52495;DHT22;38405;53.212;5.660;2024-02-14T08:22:49;10.10;99.90
52495;DHT22;38405;53.212;5.660;2024-02-14T08:25:15;10.20;99.90
52495;DHT22;38405;53.212;5.660;2024-02-14T08:27:41;9.90;99.90
52495;DHT22;38405;53.212;5.660;2024-02-14T08:30:07;9.70;99.90
52495;DHT22;38405;53.212;5.660;2024-02-14T08:32:34;9.90;99.90
52495;DHT22;38405;53.212;5.660;2024-02-14T08:35:00;10.10;99.90
52495;DHT22;38405;53.212;5.660;2024-02-14T08:37:26;10.50;99.90
52495;DHT22;38405;53.212;5.660;2024-02-14T08:39:52;10.20;99.90
52495;DHT22;38405;53.212;5.660;2024-02-14T08:42:18;10.30;99.90
52495;DHT22;38405;53.212;5.660;2024-02-14T08:44:44;10.40;99.90
52495;DHT22;38405;53.212;5.660;2024-02-14T08:47:09;10.40;99.90
52495;DHT22;38405;53.212;5.660;2024-02-14T08:49:36;10.00;99.90
52495;DHT22;38405;53.212;5.660;2024-02-14T08:52:02;10.60;99.90
52495;DHT22;38405;53.212;5.660;2024-02-14T08:54:28;10.20;99.90
52495;DHT22;38405;53.212;5.660;2024-02-14T08:56:54;10.60;99.90
52495;DHT22;38405;53.212;5.660;2024-02-14T08:59:21;10.20;99.90
52495;DHT22;38405;53.212;5.660;2024-02-14T09:01:47;10.30;99.90
52495;DHT22;38405;53.212;5.660;2024-02-14T09:04:13;10.20;99.90
52495;DHT22;38405;53.212;5.660;2024-02-14T09:06:39;10.40;99.90
52495;DHT22;38405;53.212;5.660;2024-02-14T09:09:06;10.30;99.90
52495;DHT22;38405;53.212;5.660;2024-02-14T09:11:32;10.30;99.90
52495;DHT22;38405;53.212;5.660;2024-02-14T09:13:58;10.70;99.90
52495;DHT22;38405;53.212;5.660;2024-02-14T09:16:30;10.30;99.90
52495;DHT22;38405;53.212;5.660;2024-02-14T09:18:56;10.70;99.90
52495;DHT22;38405;53.212;5.660;2024-02-14T09:21:23;10.60;99.90
52495;DHT22;38405;53.212;5.660;2024-02-14T09:23:49;10.40;99.90
52495;DHT22;38405;53.212;5.660;2024-02-14T09:26:14;10.60;99.90
52495;DHT22;38405;53.212;5.660;2024-02-14T09:28:42;10.30;99.90
52495;DHT22;38405;53.212;5.660;2024-02-14T09:31:08;10.60;99.90
52495;DHT22;38405;53.212;5.660;2024-02-14T09:33:36;10.60;99.90
52495;DHT22;38405;53.212;5.660;2024-02-14T09:36:03;10.30;99.90
52495;DHT22;38405;53.212;5.660;2024-02-14T09:38:29;10.20;99.90
52495;DHT22;38405;53.212;5.660;2024-02-14T09:41:00;10.50;99.90
52495;DHT22;38405;53.212;5.660;2024-02-14T09:43:38;10.60;99.90
52495;DHT22;38405;53.212;5.660;2024-02-14T09:46:07;10.20;99.90
52495;DHT22;38405;53.212;5.660;2024-02-14T09:48:33;10.60;99.90
52495;DHT22;38405;53.212;5.660;2024-02-14T09:51:00;10.20;99.90
52495;DHT22;38405;53.212;5.660;2024-02-14T09:53:26;10.50;99.90
52495;DHT22;38405;53.212;5.660;2024-02-14T09:55:54;10.60;99.90
52495;DHT22;38405;53.212;5.660;2024-02-14T09:58:20;10.30;99.90
52495;DHT22;38405;53.212;5.660;2024-02-14T10:00:46;10.20;99.90
52495;DHT22;38405;53.212;5.660;2024-02-14T10:03:12;10.30;99.90
52495;DHT22;38405;53.212;5.660;2024-02-14T10:05:38;10.30;99.90
52495;DHT22;38405;53.212;5.660;2024-02-14T10:08:04;10.30;99.90
52495;DHT22;38405;53.212;5.660;2024-02-14T10:10:32;10.50;99.90
52495;DHT22;38405;53.212;5.660;2024-02-14T10:13:00;10.40;99.90
52495;DHT22;38405;53.212;5.660;2024-02-14T10:15:26;10.40;99.90
52495;DHT22;38405;53.212;5.660;2024-02-14T10:17:52;10.50;99.90
52495;DHT22;38405;53.212;5.660;2024-02-14T10:20:17;10.60;99.90
52495;DHT22;38405;53.212;5.660;2024-02-14T10:22:43;10.60;99.90
52495;DHT22;38405;53.212;5.660;2024-02-14T10:25:10;10.60;99.90
52495;DHT22;38405;53.212;5.660;2024-02-14T10:27:39;10.70;99.90
52495;DHT22;38405;53.212;5.660;2024-02-14T10:30:09;10.50;99.90
52495;DHT22;38405;53.212;5.660;2024-02-14T10:32:36;10.70;99.90
52495;DHT22;38405;53.212;5.660;2024-02-14T10:35:06;10.80;99.90
52495;DHT22;38405;53.212;5.660;2024-02-14T10:37:37;10.80;99.90
52495;DHT22;38405;53.212;5.660;2024-02-14T10:40:03;10.80;99.90
52495;DHT22;38405;53.212;5.660;2024-02-14T10:42:31;10.60;99.90
52495;DHT22;38405;53.212;5.660;2024-02-14T10:44:56;10.50;99.90
52495;DHT22;38405;53.212;5.660;2024-02-14T10:47:25;10.90;99.90
52495;DHT22;38405;53.212;5.660;2024-02-14T10:50:00;10.50;99.90
52495;DHT22;38405;53.212;5.660;2024-02-14T10:52:31;10.80;99.90
52495;DHT22;38405;53.212;5.660;2024-02-14T10:54:59;10.60;99.90
52495;DHT22;38405;53.212;5.660;2024-02-14T10:57:27;10.60;99.90
52495;DHT22;38405;53.212;5.660;2024-02-14T10:59:54;10.70;99.90
52495;DHT22;38405;53.212;5.660;2024-02-14T11:02:22;11.00;99.90
52495;DHT22;38405;53.212;5.660;2024-02-14T11:04:49;10.80;99.90
52495;DHT22;38405;53.212;5.660;2024-02-14T11:07:20;10.80;99.90
52495;DHT22;38405;53.212;5.660;2024-02-14T11:09:48;11.00;99.90
52495;DHT22;38405;53.212;5.660;2024-02-14T11:12:25;10.70;99.90
52495;DHT22;38405;53.212;5.660;2024-02-14T11:14:51;11.00;99.90
52495;DHT22;38405;53.212;5.660;2024-02-14T11:17:19;10.60;99.90
52495;DHT22;38405;53.212;5.660;2024-02-14T11:19:50;11.00;99.90
52495;DHT22;38405;53.212;5.660;2024-02-14T11:22:21;10.70;99.90
52495;DHT22;38405;53.212;5.660;2024-02-14T11:24:47;10.90;99.90
52495;DHT22;38405;53.212;5.660;2024-02-14T11:27:13;10.70;99.90
52495;DHT22;38405;53.212;5.660;2024-02-14T11:29:40;11.10;99.90
52495;DHT22;38405;53.212;5.660;2024-02-14T11:32:09;10.70;99.90
52495;DHT22;38405;53.212;5.660;2024-02-14T11:34:36;10.90;99.90
52495;DHT22;38405;53.212;5.660;2024-02-14T11:37:03;10.90;99.90
52495;DHT22;38405;53.212;5.660;2024-02-14T11:39:31;10.70;99.90
52495;DHT22;38405;53.212;5.660;2024-02-14T11:41:58;11.10;99.90
52495;DHT22;38405;53.212;5.660;2024-02-14T11:44:25;11.20;99.90
52495;DHT22;38405;53.212;5.660;2024-02-14T11:46:51;11.10;99.90
52495;DHT22;38405;53.212;5.660;2024-02-14T11:49:17;11.10;99.90
52495;DHT22;38405;53.212;5.660;2024-02-14T11:51:44;10.70;99.90
52495;DHT22;38405;53.212;5.660;2024-02-14T11:54:09;11.10;99.90
52495;DHT22;38405;53.212;5.660;2024-02-14T11:56:36;10.70;99.90
52495;DHT22;38405;53.212;5.660;2024-02-14T11:59:04;10.70;99.90
52495;DHT22;38405;53.212;5.660;2024-02-14T12:01:34;10.80;99.90
52495;DHT22;38405;53.212;5.660;2024-02-14T12:04:01;10.90;99.90
52495;DHT22;38405;53.212;5.660;2024-02-14T12:06:31;10.80;99.90
52495;DHT22;38405;53.212;5.660;2024-02-14T12:08:58;10.80;99.90
52495;DHT22;38405;53.212;5.660;2024-02-14T12:11:31;10.90;99.90
52495;DHT22;38405;53.212;5.660;2024-02-14T12:14:01;10.80;99.90
52495;DHT22;38405;53.212;5.660;2024-02-14T12:16:28;10.90;99.90
52495;DHT22;38405;53.212;5.660;2024-02-14T12:19:20;11.10;99.90
52495;DHT22;38405;53.212;5.660;2024-02-14T12:21:46;11.20;99.90
52495;DHT22;38405;53.212;5.660;2024-02-14T12:24:14;10.80;99.90
52495;DHT22;38405;53.212;5.660;2024-02-14T12:26:41;10.80;99.90
52495;DHT22;38405;53.212;5.660;2024-02-14T12:29:07;10.80;99.90
52495;DHT22;38405;53.212;5.660;2024-02-14T12:31:34;11.10;99.90
52495;DHT22;38405;53.212;5.660;2024-02-14T12:34:02;11.30;99.90
52495;DHT22;38405;53.212;5.660;2024-02-14T12:36:31;10.70;99.90
52495;DHT22;38405;53.212;5.660;2024-02-14T12:39:01;10.70;99.90
52495;DHT22;38405;53.212;5.660;2024-02-14T12:41:31;10.70;99.90
52495;DHT22;38405;53.212;5.660;2024-02-14T12:43:58;11.00;99.90
52495;DHT22;38405;53.212;5.660;2024-02-14T12:46:24;10.90;99.90
52495;DHT22;38405;53.212;5.660;2024-02-14T12:48:50;10.70;99.90
52495;DHT22;38405;53.212;5.660;2024-02-14T12:51:16;10.70;99.90
52495;DHT22;38405;53.212;5.660;2024-02-14T12:53:42;10.80;99.90
52495;DHT22;38405;53.212;5.660;2024-02-14T12:56:08;10.70;99.90
52495;DHT22;38405;53.212;5.660;2024-02-14T12:58:33;10.90;99.90
52495;DHT22;38405;53.212;5.660;2024-02-14T13:01:00;10.70;99.90
52495;DHT22;38405;53.212;5.660;2024-02-14T13:03:26;10.70;99.90
52495;DHT22;38405;53.212;5.660;2024-02-14T13:05:53;10.80;99.90
52495;DHT22;38405;53.212;5.660;2024-02-14T13:08:20;10.60;99.90
52495;DHT22;38405;53.212;5.660;2024-02-14T13:10:46;10.80;99.90
52495;DHT22;38405;53.212;5.660;2024-02-14T13:13:12;10.80;99.90
52495;DHT22;38405;53.212;5.660;2024-02-14T13:15:39;10.60;99.90
52495;DHT22;38405;53.212;5.660;2024-02-14T13:18:06;10.90;99.90
52495;DHT22;38405;53.212;5.660;2024-02-14T13:20:31;10.60;99.90
52495;DHT22;38405;53.212;5.660;2024-02-14T13:22:57;11.00;99.90
52495;DHT22;38405;53.212;5.660;2024-02-14T13:25:23;10.60;99.90
52495;DHT22;38405;53.212;5.660;2024-02-14T13:27:49;11.00;99.90
52495;DHT22;38405;53.212;5.660;2024-02-14T13:30:15;10.70;99.90
52495;DHT22;38405;53.212;5.660;2024-02-14T13:32:41;11.00;99.90
52495;DHT22;38405;53.212;5.660;2024-02-14T13:35:07;10.80;99.90
52495;DHT22;38405;53.212;5.660;2024-02-14T13:37:33;10.90;99.90
52495;DHT22;38405;53.212;5.660;2024-02-14T13:39:59;10.80;99.90
52495;DHT22;38405;53.212;5.660;2024-02-14T13:42:26;10.70;99.90
52495;DHT22;38405;53.212;5.660;2024-02-14T13:44:52;11.10;99.90
52495;DHT22;38405;53.212;5.660;2024-02-14T13:47:19;10.80;99.90
52495;DHT22;38405;53.212;5.660;2024-02-14T13:49:46;10.80;99.90
52495;DHT22;38405;53.212;5.660;2024-02-14T13:52:12;11.10;99.90
52495;DHT22;38405;53.212;5.660;2024-02-14T13:54:38;10.70;99.90
52495;DHT22;38405;53.212;5.660;2024-02-14T13:57:04;11.10;99.90
52495;DHT22;38405;53.212;5.660;2024-02-14T13:59:29;11.10;99.90
52495;DHT22;38405;53.212;5.660;2024-02-14T14:01:55;10.90;99.90
52495;DHT22;38405;53.212;5.660;2024-02-14T14:04:21;10.70;99.90
52495;DHT22;38405;53.212;5.660;2024-02-14T14:06:47;11.10;99.90
52495;DHT22;38405;53.212;5.660;2024-02-14T14:09:13;11.10;99.90
52495;DHT22;38405;53.212;5.660;2024-02-14T14:11:39;10.80;99.90
52495;DHT22;38405;53.212;5.660;2024-02-14T14:14:06;10.90;99.90
52495;DHT22;38405;53.212;5.660;2024-02-14T14:16:33;11.10;99.90
52495;DHT22;38405;53.212;5.660;2024-02-14T14:18:59;11.20;99.90
52495;DHT22;38405;53.212;5.660;2024-02-14T14:21:25;11.20;99.90
52495;DHT22;38405;53.212;5.660;2024-02-14T14:23:50;11.20;99.90
52495;DHT22;38405;53.212;5.660;2024-02-14T14:26:16;11.20;99.90
52495;DHT22;38405;53.212;5.660;2024-02-14T14:28:42;11.30;99.90
52495;DHT22;38405;53.212;5.660;2024-02-14T14:31:08;11.20;99.90
52495;DHT22;38405;53.212;5.660;2024-02-14T14:33:36;11.20;99.90
52495;DHT22;38405;53.212;5.660;2024-02-14T14:36:06;11.00;99.90
52495;DHT22;38405;53.212;5.660;2024-02-14T14:38:32;11.10;99.90
52495;DHT22;38405;53.212;5.660;2024-02-14T14:40:57;11.40;99.90
52495;DHT22;38405;53.212;5.660;2024-02-14T14:43:24;11.40;99.90
52495;DHT22;38405;53.212;5.660;2024-02-14T14:45:50;11.30;99.90
52495;DHT22;38405;53.212;5.660;2024-02-14T14:48:16;11.00;99.90
52495;DHT22;38405;53.212;5.660;2024-02-14T14:50:42;11.20;99.90
52495;DHT22;38405;53.212;5.660;2024-02-14T14:53:09;11.30;99.90
52495;DHT22;38405;53.212;5.660;2024-02-14T14:55:54;11.10;99.90
52495;DHT22;38405;53.212;5.660;2024-02-14T14:58:24;11.00;99.90
52495;DHT22;38405;53.212;5.660;2024-02-14T15:00:58;11.10;99.90
52495;DHT22;38405;53.212;5.660;2024-02-14T15:03:25;11.30;99.90
52495;DHT22;38405;53.212;5.660;2024-02-14T15:05:51;11.30;99.90
52495;DHT22;38405;53.212;5.660;2024-02-14T15:08:18;10.90;99.90
52495;DHT22;38405;53.212;5.660;2024-02-14T15:10:49;10.90;99.90
52495;DHT22;38405;53.212;5.660;2024-02-14T15:13:18;11.00;99.90
52495;DHT22;38405;53.212;5.660;2024-02-14T15:15:44;11.20;99.90
52495;DHT22;38405;53.212;5.660;2024-02-14T15:18:10;11.10;99.90
52495;DHT22;38405;53.212;5.660;2024-02-14T15:20:36;11.10;99.90
52495;DHT22;38405;53.212;5.660;2024-02-14T15:23:03;10.90;99.90
52495;DHT22;38405;53.212;5.660;2024-02-14T15:25:30;10.80;99.90
52495;DHT22;38405;53.212;5.660;2024-02-14T15:27:55;10.90;99.90
52495;DHT22;38405;53.212;5.660;2024-02-14T15:30:25;11.30;99.90
52495;DHT22;38405;53.212;5.660;2024-02-14T15:33:10;11.10;99.90
52495;DHT22;38405;53.212;5.660;2024-02-14T15:35:56;10.80;99.90
52495;DHT22;38405;53.212;5.660;2024-02-14T15:38:23;11.00;99.90